Time;durP1;ratioP1;P1;durP2;ratioP2;P2;SDS_P1;SDS_P2;PMS_P1;PMS_P2;Temp;Humidity;BMP_temperature;BMP_pressure;BME280_temperature;BME280_humidity;BME280_pressure;Samples;Min_cycle;Max_cycle;Signal;HPM_P1;HPM_P2
2024/02/10 00:00:19;;;;;;;;;;;;;;;13.05;50.22;98255.03;4967647;27;98192;-70
2024/02/10 00:02:46;;;;;;;;;;;;;;;13.05;50.30;98255.03;4929765;28;100299;-69
2024/02/10 00:05:15;;;;;;;;;;;;;;;13.04;50.26;98254.25;4943294;28;100577;-70
2024/02/10 00:07:45;;;;;;;;;;;;;;;13.05;50.09;98244.22;4941247;28;98003;-65
2024/02/10 00:10:12;;;;;;;;;;;;;;;13.05;50.18;98247.72;4930625;28;99343;-69
2024/02/10 00:12:40;;;;;;;;;;;;;;;13.06;50.37;98245.81;4923578;28;98488;-69
2024/02/10 00:15:07;;;;;;;;;;;;;;;13.06;50.08;98245.81;4913552;28;99606;-67
2024/02/10 00:17:33;;;;;;;;;;;;;;;13.06;50.22;98245.81;4955783;28;99079;-66
2024/02/10 00:19:59;;;;;;;;;;;;;;;13.07;50.06;98250.09;4959618;28;99788;-69
2024/02/10 00:22:27;;;;;;;;;;;;;;;13.06;50.06;98252.00;4959341;28;98234;-69
2024/02/10 00:24:55;;;;;;;;;;;;;;;13.07;50.01;98250.09;4971931;27;98532;-66
2024/02/10 00:27:21;;;;;;;;;;;;;;;13.06;50.08;98246.59;4941527;28;98421;-69
2024/02/10 00:29:47;;;;;;;;;;;;;;;13.07;50.45;98244.69;4946452;28;99077;-69
2024/02/10 00:32:13;;;;;;;;;;;;;;;13.07;50.43;98242.75;4954946;28;121668;-66
2024/02/10 00:34:41;;;;;;;;;;;;;;;13.07;50.06;98242.75;4966778;27;98127;-69
2024/02/10 00:37:10;;;;;;;;;;;;;;;13.06;50.21;98249.31;4963316;28;98267;-69
2024/02/10 00:39:36;;;;;;;;;;;;;;;13.08;50.47;98243.53;4959179;28;107018;-69
2024/02/10 00:42:02;;;;;;;;;;;;;;;13.08;50.16;98246.25;4957504;28;98549;-65
2024/02/10 00:44:28;;;;;;;;;;;;;;;13.08;50.34;98247.03;4928119;28;105124;-70
2024/02/10 00:47:00;;;;;;;;;;;;;;;13.08;50.01;98248.94;4939311;28;99905;-66
2024/02/10 00:49:26;;;;;;;;;;;;;;;13.08;50.13;98255.16;4956405;28;98151;-69
2024/02/10 00:51:55;;;;;;;;;;;;;;;13.07;50.28;98250.88;4956986;28;102266;-66
2024/02/10 00:54:27;;;;;;;;;;;;;;;13.09;50.31;98253.25;4957147;28;98113;-65
2024/02/10 00:56:54;;;;;;;;;;;;;;;13.08;50.09;98246.25;4929943;28;98867;-69
2024/02/10 00:59:22;;;;;;;;;;;;;;;13.09;50.56;98245.94;4926614;28;99229;-65
2024/02/10 01:01:55;;;;;;;;;;;;;;;13.09;50.32;98240.53;4955049;27;98210;-65
2024/02/10 01:04:21;;;;;;;;;;;;;;;13.09;50.37;98254.03;4926075;28;98839;-65
2024/02/10 01:06:48;;;;;;;;;;;;;;;13.10;50.34;98254.84;4927667;28;98001;-69
2024/02/10 01:09:15;;;;;;;;;;;;;;;13.10;50.28;98254.84;4957012;28;98165;-69
2024/02/10 01:11:43;;;;;;;;;;;;;;;13.11;50.09;98257.19;4925112;28;98512;-65
2024/02/10 01:14:12;;;;;;;;;;;;;;;13.11;50.05;98249.06;4959788;28;99657;-66
2024/02/10 01:16:44;;;;;;;;;;;;;;;13.11;50.39;98253.69;4949832;28;99722;-69
2024/02/10 01:19:10;;;;;;;;;;;;;;;13.12;50.51;98255.28;4929851;28;97852;-66
2024/02/10 01:21:39;;;;;;;;;;;;;;;13.12;50.24;98252.56;4929627;28;98228;-65
2024/02/10 01:24:06;;;;;;;;;;;;;;;13.13;50.12;98259.56;4946283;28;98565;-65
2024/02/10 01:26:35;;;;;;;;;;;;;;;13.12;49.97;98256.06;4923502;28;98424;-65
2024/02/10 01:29:03;;;;;;;;;;;;;;;13.13;50.25;98246.84;4936835;28;98107;-66
2024/02/10 01:31:29;;;;;;;;;;;;;;;13.13;50.35;98252.25;4942422;28;99407;-70
2024/02/10 01:33:55;;;;;;;;;;;;;;;13.13;50.22;98259.56;4928079;28;128171;-66
2024/02/10 01:36:21;;;;;;;;;;;;;;;13.13;50.21;98254.16;4968044;27;107798;-69
2024/02/10 01:38:49;;;;;;;;;;;;;;;13.13;50.41;98246.84;4941387;28;113101;-70
2024/02/10 01:41:15;;;;;;;;;;;;;;;13.14;50.28;98256.53;4945944;28;99591;-66
2024/02/10 01:43:41;;;;;;;;;;;;;;;13.13;50.47;98252.25;4939906;28;98105;-65
2024/02/10 01:46:29;;;;;;;;;;;;;;;13.13;50.53;98256.88;4957433;28;98473;-69
2024/02/10 01:48:55;;;;;;;;;;;;;;;13.13;50.47;98254.94;4955261;28;99030;-69
2024/02/10 01:51:24;;;;;;;;;;;;;;;13.14;50.43;98259.22;4939269;28;99957;-69
2024/02/10 01:53:50;;;;;;;;;;;;;;;13.13;50.11;98254.94;4937065;28;98283;-70
2024/02/10 01:56:16;;;;;;;;;;;;;;;13.14;50.31;98253.03;4947524;28;98094;-67
2024/02/10 01:58:47;;;;;;;;;;;;;;;13.13;50.21;98257.66;4945947;28;97968;-69
2024/02/10 02:01:16;;;;;;;;;;;;;;;13.14;50.43;98261.94;4925573;28;98549;-66
2024/02/10 02:03:43;;;;;;;;;;;;;;;13.15;50.33;98263.50;4925633;28;97869;-69
2024/02/10 02:06:14;;;;;;;;;;;;;;;13.14;50.53;98261.16;4925612;28;98175;-66
2024/02/10 02:08:40;;;;;;;;;;;;;;;13.15;50.39;98260.00;4943623;28;99258;-66
2024/02/10 02:11:06;;;;;;;;;;;;;;;13.15;50.37;98258.09;4925851;28;105884;-69
2024/02/10 02:13:32;;;;;;;;;;;;;;;13.15;50.52;98257.31;4968073;27;99512;-70
2024/02/10 02:15:59;;;;;;;;;;;;;;;13.15;50.40;98257.31;4939634;28;98857;-70
2024/02/10 02:18:25;;;;;;;;;;;;;;;13.16;50.51;98261.59;4927561;28;98171;-66
2024/02/10 02:20:52;;;;;;;;;;;;;;;13.15;50.25;98254.59;4938224;27;130388;-69
2024/02/10 02:23:18;;;;;;;;;;;;;;;13.15;50.13;98258.09;4951496;28;100450;-66
2024/02/10 02:25:50;;;;;;;;;;;;;;;13.15;50.25;98268.91;4942680;28;101632;-65
2024/02/10 02:28:23;;;;;;;;;;;;;;;13.15;50.47;98257.31;4937505;28;98193;-69
2024/02/10 02:30:49;;;;;;;;;;;;;;;13.14;50.53;98253.81;4927880;28;99552;-66
2024/02/10 02:33:15;;;;;;;;;;;;;;;13.15;50.15;98254.59;4928945;28;99682;-66
2024/02/10 02:35:43;;;;;;;;;;;;;;;13.15;50.23;98246.50;4944170;28;127572;-66
2024/02/10 02:38:10;;;;;;;;;;;;;;;13.15;50.32;98257.31;4927984;28;98216;-66
2024/02/10 02:40:36;;;;;;;;;;;;;;;13.15;50.37;98254.59;4961611;28;98799;-69
2024/02/10 02:43:02;;;;;;;;;;;;;;;13.14;50.15;98251.13;4957373;28;98114;-69
2024/02/10 02:45:29;;;;;;;;;;;;;;;13.14;50.28;98251.13;4958131;28;98068;-65
2024/02/10 02:48:04;;;;;;;;;;;;;;;13.13;50.55;98249.53;4952398;28;98241;-66
2024/02/10 02:50:31;;;;;;;;;;;;;;;13.15;50.35;98247.28;4970317;27;98217;-66
2024/02/10 02:53:02;;;;;;;;;;;;;;;13.14;50.22;98242.22;4944304;28;99301;-66
2024/02/10 02:55:28;;;;;;;;;;;;;;;13.14;50.56;98245.69;4950033;28;98283;-69
2024/02/10 02:57:55;;;;;;;;;;;;;;;13.15;50.44;98244.56;4943462;28;98137;-66
2024/02/10 03:00:21;;;;;;;;;;;;;;;13.15;50.13;98243.78;4935518;28;98105;-66
2024/02/10 03:02:48;;;;;;;;;;;;;;;13.16;50.54;98242.66;4927840;27;99929;-69
2024/02/10 03:05:17;;;;;;;;;;;;;;;13.15;50.48;98235.66;4945526;28;99680;-69
2024/02/10 03:07:44;;;;;;;;;;;;;;;13.14;50.55;98234.88;4946849;28;98442;-69
2024/02/10 03:10:10;;;;;;;;;;;;;;;13.15;50.21;98235.66;4941552;28;101159;-69
2024/02/10 03:12:36;;;;;;;;;;;;;;;13.14;50.47;98236.81;4940299;28;99779;-65
2024/02/10 03:15:04;;;;;;;;;;;;;;;13.14;50.48;98236.81;4944408;28;99409;-66
2024/02/10 03:17:31;;;;;;;;;;;;;;;13.14;50.44;98242.22;4959516;28;98157;-65
2024/02/10 03:20:00;;;;;;;;;;;;;;;13.14;50.30;98237.59;4945390;28;98794;-66
2024/02/10 03:22:27;;;;;;;;;;;;;;;13.13;50.23;98240.63;4955564;28;99235;-69
2024/02/10 03:24:56;;;;;;;;;;;;;;;13.14;50.18;98237.59;4924810;28;98114;-69
2024/02/10 03:27:22;;;;;;;;;;;;;;;13.13;50.17;98241.44;4943932;28;98094;-69
2024/02/10 03:29:49;;;;;;;;;;;;;;;13.13;50.33;98236.00;4910218;28;98043;-69
2024/02/10 03:32:15;;;;;;;;;;;;;;;13.13;50.15;98240.63;4941555;28;98401;-66
2024/02/10 03:34:41;;;;;;;;;;;;;;;13.13;50.34;98241.44;4925930;28;98895;-66
2024/02/10 03:37:07;;;;;;;;;;;;;;;13.11;50.18;98234.75;4940898;28;99859;-69
2024/02/10 03:39:33;;;;;;;;;;;;;;;13.10;50.44;98225.88;4937956;28;119432;-69
2024/02/10 03:41:59;;;;;;;;;;;;;;;13.10;50.57;98225.06;4910380;28;99400;-69
2024/02/10 03:44:25;;;;;;;;;;;;;;;13.09;50.42;98227.00;4923248;28;101418;-69
2024/02/10 03:46:52;;;;;;;;;;;;;;;13.08;50.25;98228.09;4943906;28;116574;-65
2024/02/10 03:49:18;;;;;;;;;;;;;;;13.07;50.44;98223.81;4910756;28;98252;-66
2024/02/10 03:51:44;;;;;;;;;;;;;;;13.07;50.34;98213.00;4944108;28;98169;-66
2024/02/10 03:54:12;;;;;;;;;;;;;;;13.07;50.19;98215.72;4955889;28;98049;-66
2024/02/10 03:56:40;;;;;;;;;;;;;;;13.06;50.44;98210.66;4951982;28;98192;-69
2024/02/10 03:59:09;;;;;;;;;;;;;;;13.04;50.51;98216.38;4944119;28;98198;-66
2024/02/10 04:01:35;;;;;;;;;;;;;;;13.05;50.24;98209.06;4955627;27;98375;-69
2024/02/10 04:04:01;;;;;;;;;;;;;;;13.03;50.14;98212.09;4957707;28;98821;-70
2024/02/10 04:06:28;;;;;;;;;;;;;;;13.02;50.18;98222.13;4927746;28;98067;-65
2024/02/10 04:08:54;;;;;;;;;;;;;;;13.02;50.55;98215.94;4960278;28;98150;-66
2024/02/10 04:11:20;;;;;;;;;;;;;;;13.01;50.25;98217.88;4940996;28;98263;-71
2024/02/10 04:13:47;;;;;;;;;;;;;;;13.00;50.68;98221.66;4944994;28;98119;-69
2024/02/10 04:16:13;;;;;;;;;;;;;;;13.00;50.25;98213.56;4920952;28;98381;-65
2024/02/10 04:18:42;;;;;;;;;;;;;;;13.01;50.13;98200.84;4928995;28;98030;-69
2024/02/10 04:21:08;;;;;;;;;;;;;;;12.98;50.37;98196.13;4955521;28;98676;-66
2024/02/10 04:23:35;;;;;;;;;;;;;;;12.99;50.47;98193.06;4923952;28;104663;-69
2024/02/10 04:26:01;;;;;;;;;;;;;;;12.99;50.29;98194.97;4942144;28;99099;-66
2024/02/10 04:28:28;;;;;;;;;;;;;;;12.99;50.29;98193.06;4947639;28;98311;-69
2024/02/10 04:30:54;;;;;;;;;;;;;;;12.99;50.43;98189.56;4910534;28;98630;-65
2024/02/10 04:33:21;;;;;;;;;;;;;;;12.99;50.40;98189.56;4958030;28;100235;-65
2024/02/10 04:35:47;;;;;;;;;;;;;;;12.99;50.29;98186.88;4962467;28;97923;-68
2024/02/10 04:38:13;;;;;;;;;;;;;;;12.98;50.53;98194.19;4962073;28;99304;-69
2024/02/10 04:40:39;;;;;;;;;;;;;;;12.98;50.20;98188.00;4957760;28;113062;-69
2024/02/10 04:43:06;;;;;;;;;;;;;;;12.97;50.57;98179.09;4961717;28;122503;-65
2024/02/10 04:45:33;;;;;;;;;;;;;;;12.96;50.27;98180.22;4941509;28;98459;-65
2024/02/10 04:48:00;;;;;;;;;;;;;;;12.96;50.01;98180.22;4931314;28;99404;-69
2024/02/10 04:50:28;;;;;;;;;;;;;;;12.95;50.44;98178.63;4957040;28;99660;-65
2024/02/10 04:52:58;;;;;;;;;;;;;;;12.94;50.57;98177.06;4932302;28;98046;-65
2024/02/10 04:55:24;;;;;;;;;;;;;;;12.93;50.41;98175.50;4944180;28;99421;-65
2024/02/10 04:57:50;;;;;;;;;;;;;;;12.93;50.27;98174.69;4970384;27;98585;-65
2024/02/10 05:00:17;;;;;;;;;;;;;;;12.91;50.21;98172.34;4930313;28;115219;-66
2024/02/10 05:02:46;;;;;;;;;;;;;;;12.90;50.48;98178.09;4946172;28;98123;-65
2024/02/10 05:05:13;;;;;;;;;;;;;;;12.88;50.67;98175.69;4943681;28;97950;-65
2024/02/10 05:07:43;;;;;;;;;;;;;;;12.87;50.41;98174.13;4906219;28;100171;-69
2024/02/10 05:10:11;;;;;;;;;;;;;;;12.86;50.30;98182.59;4958849;28;97850;-69
2024/02/10 05:12:38;;;;;;;;;;;;;;;12.84;50.57;98182.91;4943523;28;98122;-69
2024/02/10 05:15:09;;;;;;;;;;;;;;;12.81;50.17;98182.78;4956724;28;97980;-65
2024/02/10 05:17:40;;;;;;;;;;;;;;;12.78;50.54;98184.28;4944282;28;98548;-65
2024/02/10 05:20:08;;;;;;;;;;;;;;;12.75;50.48;98193.03;4943885;28;98276;-69
2024/02/10 05:22:36;;;;;;;;;;;;;;;12.70;50.32;98183.25;4951051;28;98143;-69
2024/02/10 05:25:03;;;;;;;;;;;;;;;12.67;50.21;98183.13;4913836;28;98373;-69
2024/02/10 05:27:30;;;;;;;;;;;;;;;12.63;50.62;98187.63;4927303;28;98436;-65
2024/02/10 05:29:56;;;;;;;;;;;;;;;12.59;50.37;98187.50;4939013;28;98196;-65
2024/02/10 05:32:22;;;;;;;;;;;;;;;12.57;50.32;98188.94;4940967;28;100061;-69
2024/02/10 05:34:49;;;;;;;;;;;;;;;12.53;50.58;98186.13;4903886;28;98118;-69
2024/02/10 05:37:15;;;;;;;;;;;;;;;12.49;50.41;98201.44;4921660;28;98437;-69
2024/02/10 05:39:42;;;;;;;;;;;;;;;12.47;50.36;98190.97;4950872;28;98025;-69
2024/02/10 05:42:10;;;;;;;;;;;;;;;12.43;50.72;98189.28;4956590;28;98628;-65
2024/02/10 05:44:36;;;;;;;;;;;;;;;12.39;50.64;98180.25;4938988;28;97978;-65
2024/02/10 05:47:04;;;;;;;;;;;;;;;12.36;50.74;98184.41;4940153;28;98278;-65
2024/02/10 05:49:30;;;;;;;;;;;;;;;12.34;50.51;98186.66;4938471;28;98222;-69
2024/02/10 05:51:56;;;;;;;;;;;;;;;12.32;50.55;98182.72;4934757;28;98896;-65
2024/02/10 05:54:23;;;;;;;;;;;;;;;12.29;50.86;98189.56;4954176;28;100343;-66
2024/02/10 05:56:51;;;;;;;;;;;;;;;12.26;50.59;98188.34;4902859;28;98866;-65
2024/02/10 05:59:19;;;;;;;;;;;;;;;12.25;50.59;98188.66;4946800;28;98170;-65
2024/02/10 06:01:47;;;;;;;;;;;;;;;12.23;50.65;98186.28;4922777;28;98242;-65
2024/02/10 06:04:13;;;;;;;;;;;;;;;12.21;50.72;98193.91;4937765;28;98663;-69
2024/02/10 06:06:45;;;;;;;;;;;;;;;12.20;50.58;98197.75;4959192;28;97952;-66
2024/02/10 06:09:13;;;;;;;;;;;;;;;12.19;50.77;98203.50;4922742;28;100920;-66
2024/02/10 06:11:39;;;;;;;;;;;;;;;12.16;50.83;98201.44;4946473;28;98077;-65
2024/02/10 06:14:08;;;;;;;;;;;;;;;12.15;50.61;98203.38;4940805;28;98401;-69
2024/02/10 06:16:35;;;;;;;;;;;;;;;12.13;50.50;98200.19;4919977;28;98359;-69
2024/02/10 06:19:01;;;;;;;;;;;;;;;12.13;50.54;98204.81;4939416;28;98336;-69
2024/02/10 06:21:28;;;;;;;;;;;;;;;12.11;50.43;98207.84;4940517;28;98150;-69
2024/02/10 06:23:55;;;;;;;;;;;;;;;12.09;50.71;98210.09;4959717;28;98132;-70
2024/02/10 06:26:23;;;;;;;;;;;;;;;12.08;50.76;98208.50;4961044;27;99451;-69
2024/02/10 06:28:49;;;;;;;;;;;;;;;12.08;50.49;98215.81;4933143;28;98639;-69
2024/02/10 06:31:18;;;;;;;;;;;;;;;12.05;50.76;98217.25;4949236;28;98811;-65
2024/02/10 06:33:49;;;;;;;;;;;;;;;12.06;50.63;98218.06;4953389;28;98022;-65
2024/02/10 06:36:16;;;;;;;;;;;;;;;12.04;50.75;98221.88;4924740;28;98339;-65
2024/02/10 06:38:43;;;;;;;;;;;;;;;12.04;50.55;98223.78;4954132;28;98702;-69
2024/02/10 06:41:11;;;;;;;;;;;;;;;12.03;50.58;98222.22;4937510;28;98163;-69
2024/02/10 06:43:38;;;;;;;;;;;;;;;12.03;50.45;98233.81;4954618;28;98463;-65
2024/02/10 06:46:07;;;;;;;;;;;;;;;12.03;50.71;98233.81;4939181;28;98597;-69
2024/02/10 06:48:34;;;;;;;;;;;;;;;12.02;50.66;98236.81;4917953;28;101702;-66
2024/02/10 06:51:00;;;;;;;;;;;;;;;12.02;50.59;98242.22;4955498;28;98157;-69
2024/02/10 06:53:28;;;;;;;;;;;;;;;12.01;50.71;98240.66;4945800;28;99115;-69
2024/02/10 06:55:56;;;;;;;;;;;;;;;12.02;50.61;98244.91;4925921;28;98150;-66
2024/02/10 06:58:24;;;;;;;;;;;;;;;12.01;50.63;98238.72;4953992;28;99566;-65
2024/02/10 07:00:51;;;;;;;;;;;;;;;12.03;50.63;98238.44;4952797;28;98230;-69
2024/02/10 07:03:20;;;;;;;;;;;;;;;12.04;50.46;98243.47;4934286;28;98272;-69
2024/02/10 07:05:52;;;;;;;;;;;;;;;12.06;50.58;98239.66;4966119;27;98490;-69
2024/02/10 07:08:19;;;;;;;;;;;;;;;12.06;50.46;98232.34;4948666;28;99904;-65
2024/02/10 07:10:46;;;;;;;;;;;;;;;12.08;50.44;98232.03;4943904;28;98321;-66
2024/02/10 07:13:14;;;;;;;;;;;;;;;12.08;50.43;98238.22;4923663;28;98083;-65
2024/02/10 07:15:40;;;;;;;;;;;;;;;12.10;50.37;98227.06;4933510;28;98234;-65
2024/02/10 07:18:09;;;;;;;;;;;;;;;12.13;50.46;98229.91;4925248;28;98487;-65
2024/02/10 07:20:36;;;;;;;;;;;;;;;12.16;50.64;98225.75;4958086;28;98266;-65
2024/02/10 07:23:04;;;;;;;;;;;;;;;12.19;50.41;98228.59;4956114;28;98223;-69
2024/02/10 07:25:38;;;;;;;;;;;;;;;12.25;50.36;98226.47;4949750;28;99766;-69
2024/02/10 07:28:05;;;;;;;;;;;;;;;12.34;50.27;98220.97;4956201;28;98474;-69
2024/02/10 07:30:33;;;;;;;;;;;;;;;12.43;50.04;98227.09;4937589;28;99665;-65
2024/02/10 07:33:08;;;;;;;;;;;;;;;12.54;50.01;98233.66;4938624;28;98308;-69
2024/02/10 07:35:37;;;;;;;;;;;;;;;12.68;50.29;98230.66;4941432;28;98330;-65
2024/02/10 07:38:04;;;;;;;;;;;;;;;12.83;49.64;98237.31;4939531;28;98262;-65
2024/02/10 07:40:31;;;;;;;;;;;;;;;13.01;49.96;98244.13;4943624;28;98268;-65
2024/02/10 07:42:57;;;;;;;;;;;;;;;13.15;49.67;98246.50;4954077;28;99186;-65
2024/02/10 07:45:24;;;;;;;;;;;;;;;13.30;49.70;98259.38;4950509;28;98200;-65
2024/02/10 07:47:50;;;;;;;;;;;;;;;13.43;49.59;98255.53;4937142;28;98245;-68
2024/02/10 07:50:17;;;;;;;;;;;;;;;13.66;49.18;98263.97;4927042;28;99759;-65
2024/02/10 07:52:49;;;;;;;;;;;;;;;14.29;48.60;98258.06;4938791;28;98041;-65
2024/02/10 07:55:16;;;;;;;;;;;;;;;14.65;48.75;98261.75;4939856;28;98226;-65
2024/02/10 07:57:42;;;;;;;;;;;;;;;14.82;48.39;98268.81;4957327;28;99557;-69
2024/02/10 08:00:09;;;;;;;;;;;;;;;14.94;48.41;98264.09;4942677;28;98492;-65
2024/02/10 08:02:36;;;;;;;;;;;;;;;15.13;48.45;98270.75;4923981;28;98101;-69
2024/02/10 08:05:04;;;;;;;;;;;;;;;15.32;48.66;98272.75;4932446;28;99764;-68
2024/02/10 08:07:30;;;;;;;;;;;;;;;15.92;47.87;98268.75;4951576;28;98200;-69
2024/02/10 08:09:57;;;;;;;;;;;;;;;16.85;47.21;98273.31;4948610;28;98466;-69
2024/02/10 08:12:24;;;;;;;;;;;;;;;16.63;47.96;98282.22;4955583;28;98348;-69
2024/02/10 08:14:51;;;;;;;;;;;;;;;16.49;48.25;98282.72;4940069;28;98430;-66
2024/02/10 08:17:20;;;;;;;;;;;;;;;16.44;48.58;98296.59;4945043;28;98187;-69
2024/02/10 08:19:47;;;;;;;;;;;;;;;17.95;46.81;98281.69;4926938;28;98368;-69
2024/02/10 08:22:14;;;;;;;;;;;;;;;18.75;46.42;98276.84;4940728;28;98625;-66
2024/02/10 08:24:43;;;;;;;;;;;;;;;19.69;45.79;98281.16;4935922;28;99141;-69
2024/02/10 08:27:10;;;;;;;;;;;;;;;20.33;45.60;98287.00;4944123;28;97915;-69
2024/02/10 08:29:36;;;;;;;;;;;;;;;20.95;45.56;98286.84;4923093;28;98759;-69
2024/02/10 08:32:03;;;;;;;;;;;;;;;21.32;45.83;98289.25;4934191;28;98588;-66
2024/02/10 08:34:31;;;;;;;;;;;;;;;21.91;45.58;98290.75;4961426;28;98370;-69
2024/02/10 08:37:02;;;;;;;;;;;;;;;22.43;45.47;98293.75;4960535;28;98753;-70
2024/02/10 08:39:28;;;;;;;;;;;;;;;22.20;46.19;98289.50;4926978;28;99314;-66
2024/02/10 08:41:55;;;;;;;;;;;;;;;21.67;46.91;98301.38;4956969;28;99399;-70
2024/02/10 08:44:24;;;;;;;;;;;;;;;21.27;47.26;98297.81;4936705;28;99087;-70
2024/02/10 08:46:50;;;;;;;;;;;;;;;20.90;47.79;98303.63;4923904;28;98801;-66
2024/02/10 08:49:17;;;;;;;;;;;;;;;20.57;47.92;98299.25;4939309;28;99711;-66
2024/02/10 08:51:49;;;;;;;;;;;;;;;20.24;48.16;98300.22;4912865;28;98647;-66
2024/02/10 08:54:19;;;;;;;;;;;;;;;19.92;48.40;98298.13;4925855;28;99381;-69
2024/02/10 08:56:46;;;;;;;;;;;;;;;19.74;48.52;98295.28;4925267;28;99373;-69
2024/02/10 08:59:14;;;;;;;;;;;;;;;19.70;48.44;98296.44;4927343;28;99242;-66
2024/02/10 09:01:42;;;;;;;;;;;;;;;19.95;48.12;98293.84;4937590;28;100570;-66
2024/02/10 09:04:09;;;;;;;;;;;;;;;20.38;47.68;98294.84;4934253;28;98338;-69
2024/02/10 09:06:35;;;;;;;;;;;;;;;20.66;47.41;98296.91;4924111;28;99499;-69
2024/02/10 09:09:12;;;;;;;;;;;;;;;21.37;47.05;98281.81;4943074;28;98125;-69
2024/02/10 09:11:41;;;;;;;;;;;;;;;21.70;46.95;98283.34;4911836;28;99920;-70
2024/02/10 09:14:08;;;;;;;;;;;;;;;21.93;46.64;98296.63;4939296;28;98604;-70
2024/02/10 09:16:34;;;;;;;;;;;;;;;22.01;47.02;98288.00;4956683;28;98800;-69
2024/02/10 09:19:01;;;;;;;;;;;;;;;22.97;46.06;98292.31;4922225;28;101699;-70
2024/02/10 09:21:29;;;;;;;;;;;;;;;24.10;45.12;98296.50;4951253;28;97952;-66
2024/02/10 09:23:58;;;;;;;;;;;;;;;24.91;44.81;98311.22;4967347;27;98580;-66
2024/02/10 09:26:25;;;;;;;;;;;;;;;25.39;44.91;98303.88;4904224;28;98237;-70
2024/02/10 09:28:52;;;;;;;;;;;;;;;25.78;45.00;98294.97;4942146;28;99117;-70
2024/02/10 09:31:19;;;;;;;;;;;;;;;26.29;45.03;98298.34;4942422;28;98506;-67
2024/02/10 09:33:46;;;;;;;;;;;;;;;26.84;45.06;98304.31;4955616;28;98296;-70
2024/02/10 09:36:12;;;;;;;;;;;;;;;27.47;44.56;98301.31;4953871;28;98317;-70
2024/02/10 09:38:42;;;;;;;;;;;;;;;28.14;44.41;98303.56;4951590;28;98114;-70
2024/02/10 09:41:12;;;;;;;;;;;;;;;29.19;43.63;98307.66;4939460;28;98352;-70
2024/02/10 09:43:48;;;;;;;;;;;;;;;30.50;42.64;98305.19;4954040;28;99720;-65
2024/02/10 09:46:14;;;;;;;;;;;;;;;31.52;41.98;98307.19;4940294;28;99414;-65
2024/02/10 09:48:51;;;;;;;;;;;;;;;31.61;42.70;98305.66;4930096;28;98146;-68
2024/02/10 09:51:18;;;;;;;;;;;;;;;31.38;43.12;98305.00;4940293;28;98483;-65
2024/02/10 09:53:45;;;;;;;;;;;;;;;31.38;43.42;98293.88;4922534;28;100488;-68
2024/02/10 09:56:15;;;;;;;;;;;;;;;31.80;43.37;98289.75;4939072;28;98171;-65
2024/02/10 09:58:42;;;;;;;;;;;;;;;32.08;43.72;98288.56;4927999;28;99502;-68
2024/02/10 10:01:13;;;;;;;;;;;;;;;32.18;43.79;98280.94;4929298;28;98644;-68
2024/02/10 10:03:40;;;;;;;;;;;;;;;31.73;44.74;98286.03;4943228;28;98957;-65
2024/02/10 10:06:10;;;;;;;;;;;;;;;31.36;45.28;98279.66;4942705;28;99269;-65
2024/02/10 10:08:39;;;;;;;;;;;;;;;31.05;45.59;98285.25;4943476;28;98371;-65
2024/02/10 10:11:07;;;;;;;;;;;;;;;30.76;46.11;98280.00;4940184;28;98256;-68
2024/02/10 10:13:34;;;;;;;;;;;;;;;30.52;45.99;98274.91;4933163;28;98278;-66
2024/02/10 10:16:07;;;;;;;;;;;;;;;30.30;46.29;98279.72;4931312;28;98013;-69
2024/02/10 10:18:35;;;;;;;;;;;;;;;30.06;46.42;98279.38;4925243;28;98073;-69
2024/02/10 10:21:04;;;;;;;;;;;;;;;29.79;46.63;98274.38;4923346;28;98738;-69
2024/02/10 10:23:34;;;;;;;;;;;;;;;29.53;46.95;98277.19;4949226;28;97960;-69
2024/02/10 10:26:00;;;;;;;;;;;;;;;29.32;46.80;98277.91;4954281;28;98096;-69
2024/02/10 10:28:28;;;;;;;;;;;;;;;29.03;46.89;98276.03;4920811;28;98249;-66
2024/02/10 10:30:54;;;;;;;;;;;;;;;28.76;47.44;98270.13;4918762;28;98580;-66
2024/02/10 10:33:21;;;;;;;;;;;;;;;28.50;47.29;98277.66;4954760;28;98304;-66
2024/02/10 10:35:48;;;;;;;;;;;;;;;28.22;47.27;98266.16;4953043;27;98303;-67
2024/02/10 10:38:16;;;;;;;;;;;;;;;27.97;47.84;98258.53;4922256;28;98331;-65
2024/02/10 10:40:43;;;;;;;;;;;;;;;27.76;47.65;98267.41;4952447;28;98591;-69
2024/02/10 10:43:11;;;;;;;;;;;;;;;27.58;47.95;98263.06;4925132;28;99968;-65
2024/02/10 10:45:38;;;;;;;;;;;;;;;27.43;47.76;98267.41;4937500;28;98189;-69
2024/02/10 10:48:08;;;;;;;;;;;;;;;27.31;47.66;98259.81;4922190;28;99683;-69
2024/02/10 10:50:35;;;;;;;;;;;;;;;27.21;47.71;98258.88;4958389;28;98785;-66
2024/02/10 10:53:07;;;;;;;;;;;;;;;27.14;47.93;98257.06;4941095;28;99809;-66
2024/02/10 10:55:48;;;;;;;;;;;;;;;27.12;47.47;98253.19;4943649;28;98193;-66
2024/02/10 10:58:38;;;;;;;;;;;;;;;27.17;47.79;98258.97;4953695;28;97890;-69
2024/02/10 11:01:05;;;;;;;;;;;;;;;27.38;47.40;98243.81;4934112;28;97997;-66
2024/02/10 11:03:32;;;;;;;;;;;;;;;27.87;46.71;98246.53;4906362;28;99085;-66
2024/02/10 11:05:59;;;;;;;;;;;;;;;28.86;45.98;98252.41;4953449;28;98344;-69
2024/02/10 11:08:28;;;;;;;;;;;;;;;29.97;44.78;98252.31;4934417;28;98450;-66
2024/02/10 11:11:01;;;;;;;;;;;;;;;30.78;44.13;98250.53;4952151;28;98295;-66
2024/02/10 11:13:31;;;;;;;;;;;;;;;31.42;44.04;98246.41;4935383;28;98514;-66
2024/02/10 11:16:14;;;;;;;;;;;;;;;31.72;44.00;98239.94;4922246;28;99095;-69
2024/02/10 11:18:43;;;;;;;;;;;;;;;31.73;43.91;98235.16;4924946;28;98367;-70
2024/02/10 11:21:21;;;;;;;;;;;;;;;31.67;44.58;98240.56;4953519;28;98202;-69
2024/02/10 11:24:10;;;;;;;;;;;;;;;31.50;44.50;98239.31;4957114;28;98851;-66
2024/02/10 11:26:39;;;;;;;;;;;;;;;30.84;45.44;98222.13;4924447;28;97941;-66
2024/02/10 11:29:20;;;;;;;;;;;;;;;30.22;46.14;98223.69;4937420;28;98094;-69
2024/02/10 11:31:48;;;;;;;;;;;;;;;29.63;46.73;98211.47;4938075;28;98289;-67
2024/02/10 11:34:16;;;;;;;;;;;;;;;29.20;47.12;98215.69;4941294;28;98465;-69
2024/02/10 11:36:51;;;;;;;;;;;;;;;28.81;47.53;98205.84;4921426;28;99597;-68
2024/02/10 11:39:24;;;;;;;;;;;;;;;28.44;47.46;98210.94;4925202;28;98356;-69
2024/02/10 11:41:58;;;;;;;;;;;;;;;28.12;47.57;98203.53;4923753;28;98514;-69
2024/02/10 11:44:28;;;;;;;;;;;;;;;27.78;48.00;98207.63;4939471;28;98312;-66
2024/02/10 11:46:59;;;;;;;;;;;;;;;27.49;47.83;98202.06;4942492;28;98068;-69
2024/02/10 11:49:25;;;;;;;;;;;;;;;27.17;48.03;98206.44;4953000;27;99059;-69
2024/02/10 11:51:56;;;;;;;;;;;;;;;26.82;48.57;98204.50;4918071;28;98256;-66
2024/02/10 11:54:26;;;;;;;;;;;;;;;26.44;48.47;98205.69;4941314;28;98638;-69
2024/02/10 11:56:53;;;;;;;;;;;;;;;26.09;48.78;98204.47;4920758;28;99028;-66
2024/02/10 11:59:19;;;;;;;;;;;;;;;25.74;49.13;98205.91;4935799;28;99916;-66
2024/02/10 12:01:46;;;;;;;;;;;;;;;25.43;48.99;98206.13;4967344;27;99462;-66
2024/02/10 12:04:17;;;;;;;;;;;;;;;25.14;49.29;98202.28;4922956;28;98166;-66
2024/02/10 12:06:48;;;;;;;;;;;;;;;24.85;49.35;98201.94;4939005;28;98131;-66
2024/02/10 12:09:15;;;;;;;;;;;;;;;24.57;49.20;98209.44;4943433;28;99511;-69
2024/02/10 12:11:41;;;;;;;;;;;;;;;24.33;49.31;98197.53;4930927;28;97921;-65
2024/02/10 12:14:12;;;;;;;;;;;;;;;24.09;49.34;98207.69;4910148;28;98390;-69
2024/02/10 12:16:38;;;;;;;;;;;;;;;23.86;49.43;98200.09;4920320;28;99974;-66
2024/02/10 12:19:07;;;;;;;;;;;;;;;23.65;49.38;98208.53;4944881;28;98797;-69
2024/02/10 12:21:38;;;;;;;;;;;;;;;23.44;49.76;98209.53;4956948;28;100900;-66
2024/02/10 12:24:04;;;;;;;;;;;;;;;23.24;49.66;98207.34;4955754;28;98599;-65
2024/02/10 12:26:31;;;;;;;;;;;;;;;23.07;49.50;98202.00;4944873;28;98375;-69
2024/02/10 12:28:57;;;;;;;;;;;;;;;22.87;49.52;98198.97;4955932;28;98236;-68
2024/02/10 12:31:27;;;;;;;;;;;;;;;22.68;49.81;98200.31;4940729;28;98505;-68
2024/02/10 12:33:55;;;;;;;;;;;;;;;22.49;49.84;98207.09;4940397;28;98519;-65
2024/02/10 12:36:24;;;;;;;;;;;;;;;22.30;49.96;98202.88;4954436;28;98493;-65
2024/02/10 12:38:55;;;;;;;;;;;;;;;22.18;49.99;98204.09;4949542;28;98745;-65
2024/02/10 12:41:22;;;;;;;;;;;;;;;22.07;49.80;98189.63;4956367;28;98269;-69
2024/02/10 12:43:53;;;;;;;;;;;;;;;21.97;50.02;98183.00;4938711;28;99956;-65
2024/02/10 12:46:20;;;;;;;;;;;;;;;21.87;50.03;98183.03;4923819;28;98224;-65
2024/02/10 12:48:50;;;;;;;;;;;;;;;21.74;49.76;98183.47;4942101;28;98338;-68